Aérodrome :
LOGIN :

S'inscrire | Disclaimer

   EN    FR    IT 

 










Légende :    VFR   VFR Marginal   IFR   IFR Intensif   IFR Très Intensif
Visi : 
Plafond : 
>= 8 km
>= 3000ft
5 à 8 km
1000 à 3000 ft
1500m à 5 km
500 à 1000 ft
800 à 1500m
200 à 500 ft
< 800m
< 200 ft
Symboles :   Orages  Brouillard  Fortes neiges  Fortes précipitations  Vent > 20 kt
SIGMETs :   Divers  Orages  Givrage  Turbulence  Onde Orograph.  Cendres Volcan.






- Altitude de l'aérodrome : 656 ft
- Code IATA : CMN


GMMN - Casablanca Mohammed V

DERNIER METAR :
  • 061700Z 36006KT CAVOK 17/13 Q1015 NOSIG

METARs EXPIRÉS :
  • 061630Z 36006KT CAVOK 18/12 Q1015 NOSIG
  • 061600Z 01006KT 9999 SCT020 19/12 Q1015 NOSIG
  • 061530Z 01006KT 9999 SCT020 18/11 Q1014 NOSIG
  • 061500Z 01006KT 9999 SCT020 18/11 Q1014 NOSIG
  • 061430Z 01005KT 330V030 9999 SCT020 18/11 Q1014 NOSIG

TAF TAF GMMN
Valide du 06 à 12h jusqu'au 07 à 18h UTC


061100Z 0612/0718 06004KT 9999 SCT016
TEMPO 0613/0619 36012KT
BECMG 0620/0622 16006KT 8000 SCT013
PROB30
TEMPO 0702/0709 2000 BR BKN008
BECMG 0710/0712 VRB02KT CAVOK



MET'MAP, la Météo Aéronautique d'un coup d'oeil ! - Copyright ORBIFLY Décembre 2007 - Disclaimer

ORBIFLY MET'MAP TEAM :

Programmation & Développement : Alexandra Zaïnal
Sur une idée originale de : Baudouin d'Aumeries
Assistance à la programmation : Marc-Olivier Méhu
Soutien technique & logistique : Manuel Goepfert

Contact : metmap@orbifly.com




SOURCES & CREDITS :

   NOAA